createdAt,value
2023-01-06T00:02:50.306Z,9.49
2023-01-06T00:07:52.326Z,9.51
2023-01-06T00:12:55.443Z,9.55
2023-01-06T00:17:57.126Z,9.59
2023-01-06T00:22:58.802Z,9.67
2023-01-06T00:28:01.813Z,9.62
2023-01-06T00:33:03.626Z,9.68
2023-01-06T00:38:05.339Z,9.64
2023-01-06T00:43:08.432Z,9.64
2023-01-06T00:48:10.152Z,9.76
2023-01-06T00:53:12.057Z,9.77
2023-01-06T00:58:15.107Z,9.88
2023-01-06T01:03:16.911Z,9.94
2023-01-06T01:08:18.588Z,9.93
2023-01-06T01:13:21.572Z,9.94
2023-01-06T01:18:23.467Z,9.93
2023-01-06T01:23:25.123Z,9.99
2023-01-06T01:28:28.186Z,10.04
2023-01-06T01:33:30.012Z,10.01
2023-01-06T01:38:31.715Z,9.99
2023-01-06T01:43:45.184Z,9.96
2023-01-06T01:48:46.855Z,9.98
2023-01-06T01:53:49.895Z,10.07
2023-01-06T01:58:54.399Z,10.13
2023-01-06T02:03:56.056Z,10.06
2023-01-06T02:09:01.865Z,10.14
2023-01-06T02:14:09.846Z,10.11
2023-01-06T02:19:20.023Z,10.07
2023-01-06T02:24:45.037Z,10.15
2023-01-06T02:30:26.486Z,10.19
2023-01-06T02:35:50.678Z,10.15
2023-01-06T02:41:00.327Z,10.16
2023-01-06T02:46:07.961Z,10.21
2023-01-06T02:51:14.049Z,10.18
2023-01-06T02:56:15.733Z,10.33
2023-01-06T03:01:22.545Z,10.27
2023-01-06T03:06:26.502Z,10.28
2023-01-06T03:11:29.356Z,10.18
2023-01-06T03:16:31.190Z,10.19
2023-01-06T03:21:35.914Z,10.04
2023-01-06T03:26:39.175Z,10.17
2023-01-06T03:31:46.923Z,10.24
2023-01-06T03:36:53.125Z,10.28
2023-01-06T03:42:31.470Z,10.29
2023-01-06T03:47:39.191Z,10.37
2023-01-06T03:52:43.345Z,10.36
2023-01-06T03:57:46.406Z,10.33
2023-01-06T04:02:48.667Z,10.38
2023-01-06T04:07:55.171Z,10.52
2023-01-06T04:12:58.020Z,10.55
2023-01-06T04:18:04.380Z,10.56
2023-01-06T04:23:10.743Z,10.56
2023-01-06T04:28:14.914Z,10.57
2023-01-06T04:33:17.837Z,10.62
2023-01-06T04:38:23.858Z,10.66
2023-01-06T04:43:25.497Z,10.68
2023-01-06T04:48:27.179Z,10.83
2023-01-06T04:53:30.363Z,10.87
2023-01-06T04:58:32.041Z,10.84
2023-01-06T05:03:35.177Z,11.00
2023-01-06T05:08:38.455Z,11.00
2023-01-06T05:13:40.255Z,11.07
2023-01-06T05:18:42.024Z,11.04
2023-01-06T05:23:45.309Z,11.00
2023-01-06T05:28:47.103Z,11.08
2023-01-06T05:33:48.895Z,11.02
2023-01-06T05:38:55.086Z,11.08
2023-01-06T05:43:57.396Z,11.09
2023-01-06T05:49:00.143Z,11.19
2023-01-06T05:54:07.051Z,11.38
2023-01-06T05:59:08.763Z,11.38
2023-01-06T06:04:11.758Z,11.31
2023-01-06T06:09:15.047Z,11.32
2023-01-06T06:14:17.409Z,11.37
2023-01-06T06:19:19.212Z,11.40
2023-01-06T06:24:22.194Z,11.59
2023-01-06T06:29:23.880Z,11.43
2023-01-06T06:34:25.696Z,11.47
2023-01-06T06:39:28.691Z,11.42
2023-01-06T06:44:30.331Z,11.46
2023-01-06T06:49:32.055Z,11.41
2023-01-06T06:54:35.139Z,11.40
2023-01-06T06:59:36.849Z,11.41
2023-01-06T07:04:38.543Z,11.51
2023-01-06T07:09:41.581Z,11.53
2023-01-06T07:14:43.225Z,11.48
2023-01-06T07:19:45.127Z,11.48
2023-01-06T07:24:48.132Z,11.64
2023-01-06T07:29:49.794Z,11.65
2023-01-06T07:34:51.503Z,11.60
2023-01-06T07:39:54.506Z,11.65
2023-01-06T07:44:56.205Z,11.62
2023-01-06T07:49:57.991Z,11.60
2023-01-06T07:55:01.017Z,11.53
2023-01-06T08:00:03.424Z,11.71
2023-01-06T08:05:13.680Z,11.52
2023-01-06T08:10:16.800Z,11.63
2023-01-06T08:15:18.960Z,11.81
2023-01-06T08:20:20.823Z,11.76
2023-01-06T08:25:23.888Z,11.76
2023-01-06T08:30:25.589Z,11.73
2023-01-06T08:35:27.317Z,11.65
2023-01-06T08:40:30.365Z,11.66
2023-01-06T08:45:32.057Z,11.79
2023-01-06T08:50:33.726Z,11.79
2023-01-06T08:55:39.275Z,11.81
2023-01-06T09:00:41.362Z,11.88
2023-01-06T09:05:43.057Z,12.04
2023-01-06T09:10:46.059Z,12.12
2023-01-06T09:15:48.936Z,12.25
2023-01-06T09:20:50.761Z,12.37
2023-01-06T09:25:54.339Z,12.59
2023-01-06T09:30:56.049Z,12.32
2023-01-06T09:35:57.809Z,12.22
2023-01-06T09:41:38.106Z,12.42
2023-01-06T09:46:41.105Z,12.41
2023-01-06T09:51:42.805Z,12.44
2023-01-06T09:56:49.050Z,12.34
2023-01-06T10:01:50.923Z,12.28
2023-01-06T10:06:55.395Z,12.20
2023-01-06T10:12:02.057Z,12.12
2023-01-06T10:17:15.130Z,12.11
2023-01-06T10:22:19.077Z,11.99
2023-01-06T10:27:26.761Z,11.87
2023-01-06T10:32:29.665Z,11.81
2023-01-06T10:37:36.966Z,11.84
2023-01-06T10:42:57.201Z,11.76
2023-01-06T10:47:59.109Z,11.67
2023-01-06T10:53:00.904Z,11.65
2023-01-06T10:58:13.060Z,11.70
2023-01-06T11:03:32.310Z,11.75
2023-01-06T11:08:35.611Z,11.74
2023-01-06T11:13:39.379Z,11.70
2023-01-06T11:18:41.050Z,11.66
2023-01-06T11:23:43.432Z,11.59
2023-01-06T11:28:47.045Z,11.62
2023-01-06T11:33:51.137Z,11.59
2023-01-06T11:38:55.290Z,11.66
2023-01-06T11:44:05.785Z,11.69
2023-01-06T11:49:10.814Z,11.68
2023-01-06T11:54:22.331Z,11.81
2023-01-06T11:59:25.469Z,11.73
2023-01-06T12:04:30.121Z,11.63
2023-01-06T12:09:33.601Z,11.67
2023-01-06T12:14:37.658Z,11.76
2023-01-06T12:19:40.701Z,11.79
2023-01-06T12:24:42.488Z,11.74
2023-01-06T12:29:45.513Z,11.87
2023-01-06T12:34:48.643Z,12.00
2023-01-06T12:39:53.643Z,12.05
2023-01-06T12:44:58.393Z,12.12
2023-01-06T12:50:04.286Z,12.26
2023-01-06T12:55:06.720Z,12.34
2023-01-06T13:00:22.509Z,12.34
2023-01-06T13:05:39.299Z,12.36
2023-01-06T13:10:44.048Z,12.67
2023-01-06T13:15:47.025Z,13.11
2023-01-06T13:20:49.887Z,13.25
2023-01-06T13:26:17.272Z,13.54
2023-01-06T13:31:33.399Z,13.59
2023-01-06T13:37:01.310Z,13.44
2023-01-06T13:42:04.291Z,13.34
2023-01-06T13:47:09.360Z,13.12
2023-01-06T13:52:16.454Z,12.97
2023-01-06T13:57:24.785Z,12.95
2023-01-06T14:03:01.731Z,12.94
2023-01-06T14:08:04.177Z,12.76
2023-01-06T14:13:16.105Z,12.60
2023-01-06T14:18:30.206Z,12.40
2023-01-06T14:23:31.865Z,12.40
2023-01-06T14:28:33.907Z,12.32
2023-01-06T14:33:36.965Z,12.25
2023-01-06T14:38:42.454Z,12.11
2023-01-06T14:43:50.156Z,11.93
2023-01-06T14:48:55.677Z,11.80
2023-01-06T14:54:00.019Z,11.72
2023-01-06T14:59:08.786Z,11.61
2023-01-06T15:04:23.290Z,11.57
2023-01-06T15:09:25.009Z,11.69
2023-01-06T15:14:28.251Z,11.72
2023-01-06T15:19:31.302Z,11.48
2023-01-06T15:24:35.385Z,11.25
2023-01-06T15:29:37.138Z,11.12
2023-01-06T15:34:42.650Z,10.97
2023-01-06T15:39:44.410Z,10.94
2023-01-06T15:44:53.949Z,10.87
2023-01-06T15:49:57.342Z,10.79
2023-01-06T15:55:00.595Z,10.73
2023-01-06T16:00:03.975Z,10.70
2023-01-06T16:05:36.607Z,10.66
2023-01-06T16:10:39.726Z,10.60
2023-01-06T16:15:45.312Z,10.66
2023-01-06T16:20:47.142Z,10.64
2023-01-06T16:25:51.690Z,10.55
2023-01-06T16:31:12.098Z,10.51
2023-01-06T16:36:15.138Z,10.49
2023-01-06T16:41:18.868Z,10.47
2023-01-06T16:46:22.231Z,10.39
2023-01-06T16:51:23.999Z,10.41
2023-01-06T16:56:27.100Z,10.40
2023-01-06T17:01:28.876Z,10.39
2023-01-06T17:06:30.857Z,10.39
2023-01-06T17:11:34.452Z,10.42
2023-01-06T17:16:36.504Z,10.43
2023-01-06T17:21:38.730Z,10.45
2023-01-06T17:26:42.638Z,10.61
2023-01-06T17:31:45.183Z,10.68
2023-01-06T17:36:48.043Z,10.64
2023-01-06T17:41:51.884Z,10.55
2023-01-06T17:46:53.642Z,10.54
2023-01-06T17:51:55.941Z,10.50
2023-01-06T17:56:59.273Z,10.45
2023-01-06T18:02:01.346Z,10.46
2023-01-06T18:07:08.120Z,10.38
2023-01-06T18:12:12.536Z,10.39
2023-01-06T18:17:17.376Z,10.30
2023-01-06T18:22:20.218Z,10.24
2023-01-06T18:27:24.308Z,10.30
2023-01-06T18:32:28.455Z,10.31
2023-01-06T18:37:31.496Z,10.32
2023-01-06T18:42:35.166Z,10.36
2023-01-06T18:47:37.816Z,10.39
2023-01-06T18:52:41.247Z,10.34
2023-01-06T18:57:45.890Z,10.42
2023-01-06T19:02:50.582Z,10.43
2023-01-06T19:07:52.265Z,10.47
2023-01-06T19:12:55.564Z,10.45
2023-01-06T19:17:57.270Z,10.40
2023-01-06T19:22:58.984Z,10.32
2023-01-06T19:28:02.540Z,10.28
2023-01-06T19:33:19.346Z,10.24
2023-01-06T19:38:25.391Z,10.22
2023-01-06T19:43:30.300Z,10.19
2023-01-06T19:48:36.390Z,10.19
2023-01-06T19:53:41.784Z,10.06
2023-01-06T19:58:46.512Z,10.04
2023-01-06T20:03:48.516Z,9.97
2023-01-06T20:08:53.162Z,9.87
2023-01-06T20:13:56.163Z,9.87
2023-01-06T20:18:57.878Z,9.87
2023-01-06T20:23:59.619Z,9.80
2023-01-06T20:29:04.164Z,9.85
2023-01-06T20:34:05.994Z,9.80
2023-01-06T20:39:07.737Z,9.67
2023-01-06T20:44:13.058Z,9.62
2023-01-06T20:49:16.960Z,9.59
2023-01-06T20:54:18.682Z,9.51
2023-01-06T20:59:21.799Z,9.45
2023-01-06T21:04:23.536Z,9.32
2023-01-06T21:09:29.336Z,9.28
2023-01-06T21:14:33.933Z,9.20
2023-01-06T21:19:35.674Z,9.16
2023-01-06T21:24:37.432Z,9.14
2023-01-06T21:29:40.534Z,9.14
2023-01-06T21:34:42.500Z,9.12
2023-01-06T21:39:46.020Z,9.09
2023-01-06T21:44:50.836Z,9.10
2023-01-06T21:49:52.479Z,9.16
2023-01-06T21:54:54.496Z,9.22
2023-01-06T21:59:57.547Z,9.06
2023-01-06T22:05:02.660Z,9.15
2023-01-06T22:10:06.090Z,9.11
2023-01-06T22:15:09.849Z,9.21
2023-01-06T22:20:11.734Z,9.22
2023-01-06T22:25:13.460Z,9.36
2023-01-06T22:30:16.756Z,9.35
2023-01-06T22:35:18.562Z,9.39
2023-01-06T22:40:20.300Z,9.47
2023-01-06T22:45:23.354Z,9.49
2023-01-06T22:50:25.073Z,9.50
2023-01-06T22:55:26.765Z,9.42
2023-01-06T23:00:29.779Z,9.40
2023-01-06T23:05:31.480Z,9.36
2023-01-06T23:10:34.937Z,9.23
2023-01-06T23:15:38.066Z,9.21
2023-01-06T23:20:39.778Z,9.15
2023-01-06T23:25:41.517Z,9.18
2023-01-06T23:30:44.607Z,9.20
2023-01-06T23:35:46.345Z,9.20
2023-01-06T23:40:48.056Z,9.20
2023-01-06T23:45:51.117Z,9.17
2023-01-06T23:50:52.791Z,9.15
2023-01-06T23:55:55.464Z,9.08
